createdAt,value
2022-12-12T00:01:04.699Z,91.78
2022-12-12T00:05:08.113Z,91.30
2022-12-12T00:09:10.358Z,91.03
2022-12-12T00:13:12.404Z,91.75
2022-12-12T00:17:14.430Z,91.76
2022-12-12T00:21:19.728Z,91.28
2022-12-12T00:25:21.997Z,90.90
2022-12-12T00:29:24.058Z,90.16
2022-12-12T00:33:26.337Z,89.83
2022-12-12T00:37:28.384Z,90.02
2022-12-12T00:41:30.485Z,90.73
2022-12-12T00:45:32.576Z,90.61
2022-12-12T00:49:35.039Z,89.68
2022-12-12T00:53:38.012Z,88.73
2022-12-12T00:57:40.049Z,88.36
2022-12-12T01:01:42.082Z,89.28
2022-12-12T01:05:44.410Z,88.99
2022-12-12T01:09:46.409Z,89.07
2022-12-12T01:13:50.485Z,88.59
2022-12-12T01:17:53.184Z,89.80
2022-12-12T01:21:55.627Z,89.81
2022-12-12T01:26:02.240Z,89.33
2022-12-12T01:30:05.855Z,88.93
2022-12-12T01:34:08.158Z,88.13
2022-12-12T01:38:10.176Z,87.85
2022-12-12T01:42:14.445Z,89.19
2022-12-12T01:46:33.411Z,88.62
2022-12-12T01:50:35.638Z,89.30
2022-12-12T01:54:45.234Z,90.17
2022-12-12T01:58:49.491Z,90.21
2022-12-12T02:02:53.707Z,88.70
2022-12-12T02:06:56.504Z,89.37
2022-12-12T02:10:58.826Z,89.63
2022-12-12T02:15:02.061Z,90.42
2022-12-12T02:19:52.292Z,89.32
2022-12-12T02:24:26.195Z,89.64
2022-12-12T02:29:01.620Z,89.25
2022-12-12T02:33:13.624Z,89.01
2022-12-12T02:37:26.461Z,89.65
2022-12-12T02:41:32.724Z,90.13
2022-12-12T02:45:56.602Z,89.71
2022-12-12T02:50:13.275Z,89.01
2022-12-12T02:54:18.351Z,90.42
2022-12-12T02:58:20.349Z,90.24
2022-12-12T03:02:37.632Z,90.51
2022-12-12T03:07:27.712Z,90.87
2022-12-12T03:12:10.630Z,89.64
2022-12-12T03:16:32.560Z,90.12
2022-12-12T03:21:06.703Z,90.31
2022-12-12T03:25:36.689Z,91.50
2022-12-12T03:29:48.544Z,93.18
2022-12-12T03:33:56.993Z,93.11
2022-12-12T03:38:06.067Z,92.22
2022-12-12T03:42:35.780Z,91.02
2022-12-12T03:47:17.504Z,90.76
2022-12-12T03:51:29.105Z,90.80
2022-12-12T03:55:47.241Z,90.29
2022-12-12T03:59:54.327Z,90.14
2022-12-12T04:04:03.034Z,89.69
2022-12-12T04:08:11.408Z,90.47
2022-12-12T04:12:41.247Z,91.46
2022-12-12T04:16:46.755Z,91.77
2022-12-12T04:21:21.211Z,91.90
2022-12-12T04:26:03.663Z,91.09
2022-12-12T04:30:08.340Z,90.59
2022-12-12T04:34:19.364Z,91.64
2022-12-12T04:38:23.916Z,91.73
2022-12-12T04:42:29.319Z,90.51
2022-12-12T04:46:33.251Z,90.47
2022-12-12T04:50:37.187Z,90.53
2022-12-12T04:54:49.342Z,90.64
2022-12-12T04:58:51.571Z,90.55
2022-12-12T05:03:00.872Z,90.79
2022-12-12T05:07:09.141Z,91.70
2022-12-12T05:11:12.011Z,92.86
2022-12-12T05:15:16.481Z,91.95
2022-12-12T05:19:18.674Z,92.67
2022-12-12T05:23:20.689Z,92.87
2022-12-12T05:27:22.680Z,92.17
2022-12-12T05:31:24.672Z,92.55
2022-12-12T05:35:26.987Z,92.98
2022-12-12T05:39:28.957Z,93.07
2022-12-12T05:43:31.245Z,93.06
2022-12-12T05:47:33.506Z,94.01
2022-12-12T05:51:36.711Z,94.14
2022-12-12T05:55:38.761Z,93.33
2022-12-12T05:59:40.792Z,92.88
2022-12-12T06:03:42.822Z,93.28
2022-12-12T06:07:44.860Z,93.31
2022-12-12T06:11:46.895Z,93.13
2022-12-12T06:15:49.007Z,92.12
2022-12-12T06:19:52.377Z,92.04
2022-12-12T06:23:54.451Z,91.28
2022-12-12T06:27:57.383Z,91.08
2022-12-12T06:32:01.209Z,91.66
2022-12-12T06:36:13.900Z,92.18
2022-12-12T06:40:17.116Z,92.23
2022-12-12T06:44:19.161Z,93.82
2022-12-12T06:48:21.217Z,92.54
2022-12-12T06:52:23.224Z,94.35
2022-12-12T06:56:26.736Z,94.62
2022-12-12T07:00:28.739Z,93.18
2022-12-12T07:04:30.769Z,92.64
2022-12-12T07:08:34.633Z,92.75
2022-12-12T07:12:36.622Z,92.16
2022-12-12T07:16:39.179Z,92.71
2022-12-12T07:20:43.071Z,91.59
2022-12-12T07:24:45.054Z,91.02
2022-12-12T07:28:48.017Z,91.04
2022-12-12T07:32:51.866Z,91.13
2022-12-12T07:36:59.225Z,91.71
2022-12-12T07:41:07.536Z,90.74
2022-12-12T07:45:15.003Z,90.15
2022-12-12T07:49:20.019Z,88.18
2022-12-12T07:53:22.034Z,87.70
2022-12-12T07:57:24.031Z,88.33
2022-12-12T08:01:27.292Z,88.81
2022-12-12T08:05:29.302Z,89.41
2022-12-12T08:09:31.525Z,89.72
2022-12-12T08:13:36.071Z,89.78
2022-12-12T08:17:38.058Z,89.24
2022-12-12T08:21:40.048Z,88.94
2022-12-12T08:25:42.986Z,88.57
2022-12-12T08:29:45.044Z,89.72
2022-12-12T08:33:47.962Z,89.41
2022-12-12T08:37:50.930Z,88.95
2022-12-12T08:41:53.241Z,88.68
2022-12-12T08:46:02.946Z,87.90
2022-12-12T08:50:06.251Z,89.01
2022-12-12T08:54:09.935Z,90.31
2022-12-12T08:58:12.032Z,89.83
2022-12-12T09:02:14.594Z,89.74
2022-12-12T09:06:17.607Z,89.23
2022-12-12T09:10:19.986Z,87.84
2022-12-12T09:14:22.006Z,87.69
2022-12-12T09:18:24.400Z,87.28
2022-12-12T09:22:26.430Z,87.48
2022-12-12T09:26:28.452Z,85.86
2022-12-12T09:30:30.502Z,85.50
2022-12-12T09:34:33.772Z,86.21
2022-12-12T09:38:36.634Z,85.74
2022-12-12T09:42:46.270Z,85.00
2022-12-12T09:46:53.183Z,83.73
2022-12-12T09:50:55.252Z,82.88
2022-12-12T09:54:59.680Z,82.89
2022-12-12T09:59:18.984Z,82.81
2022-12-12T10:03:24.144Z,81.48
2022-12-12T10:07:42.814Z,81.18
2022-12-12T10:11:51.247Z,81.25
2022-12-12T10:16:03.043Z,82.61
2022-12-12T10:20:14.413Z,84.71
2022-12-12T10:24:33.119Z,84.51
2022-12-12T10:28:35.777Z,82.72
2022-12-12T10:32:53.363Z,82.24
2022-12-12T10:37:26.115Z,82.75
2022-12-12T10:41:42.234Z,83.91
2022-12-12T10:45:56.686Z,84.34
2022-12-12T10:50:20.574Z,85.68
2022-12-12T10:54:26.284Z,86.17
2022-12-12T10:58:37.487Z,87.50
2022-12-12T11:02:44.217Z,87.87
2022-12-12T11:06:50.666Z,88.56
2022-12-12T11:11:22.764Z,86.47
2022-12-12T11:15:32.001Z,85.05
2022-12-12T11:19:38.899Z,83.59
2022-12-12T11:23:50.327Z,82.97
2022-12-12T11:27:53.627Z,82.45
2022-12-12T11:31:56.876Z,81.77
2022-12-12T11:36:01.068Z,79.80
2022-12-12T11:40:07.419Z,80.36
2022-12-12T11:44:24.156Z,79.85
2022-12-12T11:48:48.433Z,79.76
2022-12-12T11:52:53.732Z,78.69
2022-12-12T11:57:02.082Z,77.49
2022-12-12T12:01:11.912Z,76.51
2022-12-12T12:05:25.911Z,76.08
2022-12-12T12:09:31.509Z,76.17
2022-12-12T12:14:15.193Z,76.07
2022-12-12T12:18:37.247Z,75.60
2022-12-12T12:22:51.635Z,76.07
2022-12-12T12:27:08.689Z,76.57
2022-12-12T12:31:25.919Z,76.37
2022-12-12T12:35:30.917Z,76.74
2022-12-12T12:39:59.396Z,76.79
2022-12-12T12:44:26.646Z,76.73
2022-12-12T12:48:34.666Z,76.39
2022-12-12T12:52:43.306Z,75.86
2022-12-12T12:57:04.191Z,75.17
2022-12-12T13:01:14.653Z,76.88
2022-12-12T13:05:24.318Z,78.70
2022-12-12T13:09:41.974Z,80.29
2022-12-12T13:13:47.800Z,81.25
2022-12-12T13:18:01.582Z,82.26
2022-12-12T13:22:24.401Z,84.02
2022-12-12T13:26:41.795Z,84.92
2022-12-12T13:30:55.683Z,85.08
2022-12-12T13:35:03.894Z,84.70
2022-12-12T13:39:09.039Z,86.41
2022-12-12T13:43:34.073Z,86.62
2022-12-12T13:47:36.060Z,86.30
2022-12-12T13:51:42.289Z,85.84
2022-12-12T13:55:44.462Z,86.40
2022-12-12T13:59:52.738Z,87.15
2022-12-12T14:03:55.016Z,87.76
2022-12-12T14:08:08.391Z,88.01
2022-12-12T14:12:29.150Z,88.27
2022-12-12T14:16:36.002Z,88.44
2022-12-12T14:21:00.223Z,89.66
2022-12-12T14:25:07.348Z,90.05
2022-12-12T14:29:15.399Z,89.73
2022-12-12T14:33:17.327Z,89.37
2022-12-12T14:37:28.356Z,89.63
2022-12-12T14:41:35.943Z,90.36
2022-12-12T14:45:51.280Z,90.40
2022-12-12T14:50:17.312Z,90.90
2022-12-12T14:54:21.693Z,89.87
2022-12-12T14:58:27.957Z,89.28
2022-12-12T15:02:35.283Z,89.61
2022-12-12T15:06:45.357Z,89.30
2022-12-12T15:10:59.464Z,88.89
2022-12-12T15:15:01.951Z,89.80
2022-12-12T15:19:04.173Z,91.01
2022-12-12T15:23:07.401Z,91.62
2022-12-12T15:27:19.819Z,91.44
2022-12-12T15:31:22.584Z,90.85
2022-12-12T15:35:25.039Z,90.91
2022-12-12T15:39:27.333Z,91.36
2022-12-12T15:43:31.010Z,91.59
2022-12-12T15:47:33.745Z,92.22
2022-12-12T15:51:35.789Z,90.56
2022-12-12T15:55:37.963Z,91.58
2022-12-12T15:59:40.647Z,92.64
2022-12-12T16:04:02.877Z,93.37
2022-12-12T16:08:36.294Z,93.29
2022-12-12T16:13:22.072Z,93.68
2022-12-12T16:17:25.600Z,94.49
2022-12-12T16:21:28.628Z,93.18
2022-12-12T16:25:33.995Z,93.47
2022-12-12T16:29:36.501Z,95.00
2022-12-12T16:33:40.219Z,95.28
2022-12-12T16:37:42.500Z,95.15
2022-12-12T16:41:44.671Z,95.09
2022-12-12T16:45:49.459Z,95.23
2022-12-12T16:49:51.980Z,94.37
2022-12-12T16:53:55.226Z,95.61
2022-12-12T16:57:57.238Z,94.97
2022-12-12T17:01:59.549Z,95.74
2022-12-12T17:06:01.947Z,95.47
2022-12-12T17:10:04.714Z,95.59
2022-12-12T17:14:06.773Z,94.04
2022-12-12T17:18:09.052Z,93.39
2022-12-12T17:22:11.129Z,93.36
2022-12-12T17:26:13.293Z,93.11
2022-12-12T17:30:16.269Z,93.26
2022-12-12T17:34:18.521Z,92.70
2022-12-12T17:38:20.541Z,92.39
2022-12-12T17:42:22.709Z,92.77
2022-12-12T17:46:27.695Z,92.53
2022-12-12T17:50:29.739Z,91.17
2022-12-12T17:54:32.346Z,89.64
2022-12-12T17:58:36.497Z,89.70
2022-12-12T18:02:39.848Z,89.06
2022-12-12T18:06:41.834Z,89.08
2022-12-12T18:10:43.838Z,88.33
2022-12-12T18:14:46.136Z,88.07
2022-12-12T18:18:50.382Z,87.30
2022-12-12T18:22:55.045Z,87.17
2022-12-12T18:26:59.172Z,86.61
2022-12-12T18:31:02.502Z,86.49
2022-12-12T18:35:05.006Z,85.18
2022-12-12T18:39:07.371Z,86.85
2022-12-12T18:43:09.437Z,86.73
2022-12-12T18:47:11.853Z,87.48
2022-12-12T18:51:15.869Z,87.78
2022-12-12T18:55:18.090Z,87.66
2022-12-12T18:59:20.096Z,87.62
2022-12-12T19:03:22.174Z,88.13
2022-12-12T19:07:24.275Z,87.49
2022-12-12T19:11:26.250Z,86.07
2022-12-12T19:15:28.482Z,87.12
2022-12-12T19:19:30.963Z,86.24
2022-12-12T19:23:33.564Z,86.47
2022-12-12T19:27:35.595Z,85.02
2022-12-12T19:31:37.684Z,84.99
2022-12-12T19:35:39.773Z,84.81
2022-12-12T19:39:41.952Z,84.42
2022-12-12T19:43:45.760Z,84.98
2022-12-12T19:47:47.818Z,84.61
2022-12-12T19:51:49.850Z,84.05
2022-12-12T19:55:52.081Z,82.16
2022-12-12T19:59:54.204Z,81.98
2022-12-12T20:04:01.136Z,83.28
2022-12-12T20:08:03.249Z,83.00
2022-12-12T20:12:05.527Z,83.96
2022-12-12T20:16:10.895Z,84.37
2022-12-12T20:20:13.200Z,84.83
2022-12-12T20:24:17.393Z,85.04
2022-12-12T20:28:19.435Z,85.32
2022-12-12T20:32:21.481Z,85.42
2022-12-12T20:36:31.336Z,86.26
2022-12-12T20:40:39.247Z,88.37
2022-12-12T20:44:41.302Z,88.30
2022-12-12T20:48:43.940Z,87.96
2022-12-12T20:52:46.019Z,89.37
2022-12-12T20:56:50.868Z,88.46
2022-12-12T21:00:52.884Z,88.66
2022-12-12T21:04:54.917Z,89.97
2022-12-12T21:09:00.487Z,92.05
2022-12-12T21:13:02.639Z,92.54
2022-12-12T21:17:05.002Z,92.41
2022-12-12T21:21:10.865Z,92.55
2022-12-12T21:25:13.186Z,92.71
2022-12-12T21:29:16.209Z,92.39
2022-12-12T21:33:18.253Z,91.64
2022-12-12T21:37:20.317Z,92.72
2022-12-12T21:41:23.135Z,92.67
2022-12-12T21:45:25.197Z,92.93
2022-12-12T21:49:27.713Z,93.36
2022-12-12T21:53:36.014Z,94.96
2022-12-12T21:57:38.081Z,93.94
2022-12-12T22:01:40.908Z,93.19
2022-12-12T22:05:43.137Z,94.00
2022-12-12T22:09:45.191Z,94.08
2022-12-12T22:14:08.318Z,94.31
2022-12-12T22:18:10.359Z,95.52
2022-12-12T22:22:13.470Z,92.66
2022-12-12T22:26:27.681Z,93.42
2022-12-12T22:30:29.673Z,94.34
2022-12-12T22:34:31.698Z,94.77
2022-12-12T22:38:38.016Z,93.53
2022-12-12T22:42:40.535Z,95.28
2022-12-12T22:46:47.609Z,95.28
2022-12-12T22:50:49.714Z,94.09
2022-12-12T22:54:51.866Z,93.33
2022-12-12T22:58:54.257Z,94.17
2022-12-12T23:02:56.241Z,94.28
2022-12-12T23:06:58.251Z,94.72
2022-12-12T23:11:13.150Z,96.24
2022-12-12T23:15:15.830Z,94.52
2022-12-12T23:19:21.118Z,93.55
2022-12-12T23:23:23.162Z,96.21
2022-12-12T23:27:25.264Z,97.56
2022-12-12T23:31:30.221Z,98.14
2022-12-12T23:35:32.334Z,96.85
2022-12-12T23:39:34.382Z,97.47
2022-12-12T23:43:36.803Z,97.24
2022-12-12T23:47:38.843Z,95.98
2022-12-12T23:51:50.017Z,96.24
2022-12-12T23:55:52.069Z,99.22
2022-12-12T23:59:54.050Z,98.79
